createdAt,value
2022-10-23T00:24:59.387Z,7.7
2022-10-23T00:35:01.386Z,7.6
2022-10-23T00:55:05.980Z,7.4
2022-10-23T01:25:11.643Z,7.1
2022-10-23T01:35:14.029Z,7.1
2022-10-23T01:45:16.649Z,7
2022-10-23T01:55:19.059Z,7
2022-10-23T02:05:21.282Z,7.1
2022-10-23T02:15:23.569Z,7
2022-10-23T02:35:27.880Z,7.2
2022-10-23T02:45:29.860Z,7.2
2022-10-23T03:05:33.546Z,7.2
2022-10-23T03:15:57.707Z,7.1
2022-10-23T03:25:44.581Z,7
2022-10-23T03:45:48.077Z,7.2
2022-10-23T03:55:50.067Z,7.2
2022-10-23T04:05:52.576Z,7.2
2022-10-23T04:15:54.909Z,7.2
2022-10-23T04:25:57.407Z,7.5
2022-10-23T04:35:59.658Z,7.6
2022-10-23T04:46:01.496Z,7.6
2022-10-23T04:56:03.168Z,7.8
2022-10-23T05:06:05.800Z,7.7
2022-10-23T05:16:07.636Z,7.8
2022-10-23T05:26:09.484Z,7.8
2022-10-23T05:36:11.980Z,7.9
2022-10-23T05:46:14.014Z,8.2
2022-10-23T05:56:15.615Z,8.3
2022-10-23T06:06:17.827Z,8.2
2022-10-23T06:16:19.672Z,8.4
2022-10-23T06:26:22.062Z,9
2022-10-23T06:36:23.690Z,9.3
2022-10-23T06:46:25.711Z,9.3
2022-10-23T06:56:28.115Z,9.4
2022-10-23T07:06:29.837Z,9.6
2022-10-23T07:16:31.944Z,9.8
2022-10-23T07:26:34.573Z,10
2022-10-23T07:36:36.916Z,10.2
2022-10-23T07:46:38.902Z,10.6
2022-10-23T07:56:40.787Z,11.1
2022-10-23T08:06:43.039Z,11.5
2022-10-23T08:16:45.585Z,11.6
2022-10-23T08:26:47.951Z,11.9
2022-10-23T08:36:49.629Z,11.9
2022-10-23T08:46:51.327Z,12.3
2022-10-23T08:56:53.417Z,12.6
2022-10-23T09:06:55.299Z,12.9
2022-10-23T09:16:57.297Z,13.4
2022-10-23T09:26:59.364Z,14
2022-10-23T09:37:01.978Z,14.4
2022-10-23T09:47:04.577Z,14.8
2022-10-23T09:57:06.548Z,15.2
2022-10-23T10:07:08.286Z,15.6
2022-10-23T10:17:10.570Z,16
2022-10-23T10:27:13.160Z,16.2
2022-10-23T10:37:15.005Z,16.2
2022-10-23T10:47:18.614Z,16.1
2022-10-23T10:57:19.784Z,16.3
2022-10-23T11:07:22.035Z,16.6
2022-10-23T11:17:24.468Z,16.6
2022-10-23T11:27:26.838Z,16.6
2022-10-23T11:37:29.115Z,16.8
2022-10-23T11:57:33.613Z,17.3
2022-10-23T12:07:35.867Z,17.7
2022-10-23T12:17:37.690Z,17.9
2022-10-23T12:27:39.750Z,18
2022-10-23T12:47:44.401Z,18.8
2022-10-23T12:57:46.381Z,19
2022-10-23T13:07:48.074Z,19.2
2022-10-23T13:17:50.175Z,19.5
2022-10-23T13:27:51.833Z,19.4
2022-10-23T13:37:54.179Z,19.1
2022-10-23T13:47:55.943Z,18.8
2022-10-23T13:57:57.841Z,18.6
2022-10-23T14:07:59.831Z,18.7
2022-10-23T14:18:05.973Z,18.4
2022-10-23T14:28:03.428Z,18.3
2022-10-23T14:38:05.910Z,18.2
2022-10-23T14:48:08.312Z,17.9
2022-10-23T14:58:10.007Z,17.7
2022-10-23T15:08:11.969Z,17.4
2022-10-23T15:18:13.649Z,17.1
2022-10-23T15:38:17.232Z,16.4
2022-10-23T15:48:19.673Z,16.4
2022-10-23T15:58:21.903Z,15.7
2022-10-23T16:08:24.457Z,15.3
2022-10-23T16:18:26.398Z,15
2022-10-23T16:28:28.719Z,14.9
2022-10-23T16:38:31.083Z,15
2022-10-23T16:48:33.390Z,14.9
2022-10-23T16:58:35.512Z,14.9
2022-10-23T17:08:37.174Z,14.8
2022-10-23T17:18:41.270Z,14.8
2022-10-23T17:28:40.901Z,14.8
2022-10-23T17:38:43.051Z,14.8
2022-10-23T17:48:45.305Z,14.9
2022-10-23T17:58:47.566Z,14.9
2022-10-23T18:08:49.300Z,14.9
2022-10-23T18:18:51.498Z,14.8
2022-10-23T18:28:53.168Z,14.7
2022-10-23T18:48:57.535Z,14.6
2022-10-23T18:58:59.401Z,14.5
2022-10-23T19:09:01.961Z,14.4
2022-10-23T19:19:04.514Z,14.2
2022-10-23T19:29:06.614Z,14.3
2022-10-23T19:39:08.828Z,14.2
2022-10-23T19:49:10.950Z,14.1
2022-10-23T19:59:13.232Z,13.9
2022-10-23T20:09:15.633Z,13.8
2022-10-23T20:29:20.239Z,13.6
2022-10-23T20:39:22.324Z,13.8
2022-10-23T20:49:24.886Z,13.8
2022-10-23T20:59:26.795Z,14.1
2022-10-23T21:19:31.052Z,15.2
2022-10-23T21:29:33.473Z,14.9
2022-10-23T21:39:35.775Z,14.6
2022-10-23T21:49:37.663Z,14.2
2022-10-23T21:59:39.551Z,14.1
2022-10-23T22:09:41.450Z,13.8
2022-10-23T22:19:44.000Z,13.6
2022-10-23T22:29:46.456Z,13.4
2022-10-23T22:39:48.215Z,13.3
2022-10-23T22:49:50.670Z,13.3
2022-10-23T22:59:52.952Z,13.3
2022-10-23T23:09:54.972Z,13.3
2022-10-23T23:19:57.230Z,13.5
2022-10-23T23:29:58.867Z,13.5
2022-10-23T23:40:00.686Z,13.4
2022-10-23T23:50:02.666Z,13.1
